sensor_id;sensor_type;location;lat;lon;timestamp;temperature;humidity
24146;DHT22;12308;50.948;4.706;2023-05-27T00:01:19;13.30;99.90
24146;DHT22;12308;50.948;4.706;2023-05-27T00:03:46;13.20;99.90
24146;DHT22;12308;50.948;4.706;2023-05-27T00:06:12;13.20;99.90
24146;DHT22;12308;50.948;4.706;2023-05-27T00:08:37;13.10;99.90
24146;DHT22;12308;50.948;4.706;2023-05-27T00:11:03;13.10;99.90
24146;DHT22;12308;50.948;4.706;2023-05-27T00:13:29;13.00;99.90
24146;DHT22;12308;50.948;4.706;2023-05-27T00:15:54;12.90;99.90
24146;DHT22;12308;50.948;4.706;2023-05-27T00:18:21;13.00;99.90
24146;DHT22;12308;50.948;4.706;2023-05-27T00:20:46;13.00;99.90
24146;DHT22;12308;50.948;4.706;2023-05-27T00:23:13;12.90;99.90
24146;DHT22;12308;50.948;4.706;2023-05-27T00:25:40;13.00;99.90
24146;DHT22;12308;50.948;4.706;2023-05-27T00:28:05;12.90;99.90
24146;DHT22;12308;50.948;4.706;2023-05-27T00:30:31;12.90;99.90
24146;DHT22;12308;50.948;4.706;2023-05-27T00:32:57;12.90;99.90
24146;DHT22;12308;50.948;4.706;2023-05-27T00:35:23;12.80;99.90
24146;DHT22;12308;50.948;4.706;2023-05-27T00:37:49;12.70;99.90
24146;DHT22;12308;50.948;4.706;2023-05-27T00:40:15;12.70;99.90
24146;DHT22;12308;50.948;4.706;2023-05-27T00:42:42;12.80;99.90
24146;DHT22;12308;50.948;4.706;2023-05-27T00:45:08;12.70;99.90
24146;DHT22;12308;50.948;4.706;2023-05-27T00:47:34;12.50;99.90
24146;DHT22;12308;50.948;4.706;2023-05-27T00:50:01;12.60;99.90
24146;DHT22;12308;50.948;4.706;2023-05-27T00:52:29;12.50;99.90
24146;DHT22;12308;50.948;4.706;2023-05-27T00:54:55;12.50;99.90
24146;DHT22;12308;50.948;4.706;2023-05-27T00:57:22;12.60;99.90
24146;DHT22;12308;50.948;4.706;2023-05-27T00:59:47;12.50;99.90
24146;DHT22;12308;50.948;4.706;2023-05-27T01:02:14;12.50;99.90
24146;DHT22;12308;50.948;4.706;2023-05-27T01:04:40;12.20;99.90
24146;DHT22;12308;50.948;4.706;2023-05-27T01:07:28;12.10;99.90
24146;DHT22;12308;50.948;4.706;2023-05-27T01:09:58;12.20;99.90
24146;DHT22;12308;50.948;4.706;2023-05-27T01:12:35;12.30;99.90
24146;DHT22;12308;50.948;4.706;2023-05-27T01:15:04;12.30;99.90
24146;DHT22;12308;50.948;4.706;2023-05-27T01:17:31;12.20;99.90
24146;DHT22;12308;50.948;4.706;2023-05-27T01:19:59;12.20;99.90
24146;DHT22;12308;50.948;4.706;2023-05-27T01:22:30;12.00;99.90
24146;DHT22;12308;50.948;4.706;2023-05-27T01:24:55;12.00;99.90
24146;DHT22;12308;50.948;4.706;2023-05-27T01:27:21;12.10;99.90
24146;DHT22;12308;50.948;4.706;2023-05-27T01:29:51;11.90;99.90
24146;DHT22;12308;50.948;4.706;2023-05-27T01:32:27;11.90;99.90
24146;DHT22;12308;50.948;4.706;2023-05-27T01:37:22;11.70;99.90
24146;DHT22;12308;50.948;4.706;2023-05-27T01:39:50;11.70;99.90
24146;DHT22;12308;50.948;4.706;2023-05-27T01:42:16;11.80;99.90
24146;DHT22;12308;50.948;4.706;2023-05-27T01:44:43;11.80;99.90
24146;DHT22;12308;50.948;4.706;2023-05-27T01:47:09;11.90;99.90
24146;DHT22;12308;50.948;4.706;2023-05-27T01:49:36;11.80;99.90
24146;DHT22;12308;50.948;4.706;2023-05-27T01:52:02;11.80;99.90
24146;DHT22;12308;50.948;4.706;2023-05-27T01:54:27;11.80;99.90
24146;DHT22;12308;50.948;4.706;2023-05-27T01:56:53;11.70;99.90
24146;DHT22;12308;50.948;4.706;2023-05-27T01:59:19;11.80;99.90
24146;DHT22;12308;50.948;4.706;2023-05-27T02:01:44;11.70;99.90
24146;DHT22;12308;50.948;4.706;2023-05-27T02:04:10;11.80;99.90
24146;DHT22;12308;50.948;4.706;2023-05-27T02:06:36;11.60;99.90
24146;DHT22;12308;50.948;4.706;2023-05-27T02:09:02;11.60;99.90
24146;DHT22;12308;50.948;4.706;2023-05-27T02:11:29;11.50;99.90
24146;DHT22;12308;50.948;4.706;2023-05-27T02:13:54;11.40;99.90
24146;DHT22;12308;50.948;4.706;2023-05-27T02:16:21;11.50;99.90
24146;DHT22;12308;50.948;4.706;2023-05-27T02:18:50;11.30;99.90
24146;DHT22;12308;50.948;4.706;2023-05-27T02:21:16;11.20;99.90
24146;DHT22;12308;50.948;4.706;2023-05-27T02:23:42;11.20;99.90
24146;DHT22;12308;50.948;4.706;2023-05-27T02:26:07;11.20;99.90
24146;DHT22;12308;50.948;4.706;2023-05-27T02:28:33;11.30;99.90
24146;DHT22;12308;50.948;4.706;2023-05-27T02:30:59;11.20;99.90
24146;DHT22;12308;50.948;4.706;2023-05-27T02:33:25;11.20;99.90
24146;DHT22;12308;50.948;4.706;2023-05-27T02:35:51;11.20;99.90
24146;DHT22;12308;50.948;4.706;2023-05-27T02:38:16;11.20;99.90
24146;DHT22;12308;50.948;4.706;2023-05-27T02:40:42;11.20;99.90
24146;DHT22;12308;50.948;4.706;2023-05-27T02:43:08;11.10;99.90
24146;DHT22;12308;50.948;4.706;2023-05-27T02:45:34;11.30;99.90
24146;DHT22;12308;50.948;4.706;2023-05-27T02:47:59;11.20;99.90
24146;DHT22;12308;50.948;4.706;2023-05-27T02:50:27;11.00;99.90
24146;DHT22;12308;50.948;4.706;2023-05-27T02:52:53;10.90;99.90
24146;DHT22;12308;50.948;4.706;2023-05-27T02:55:19;10.90;99.90
24146;DHT22;12308;50.948;4.706;2023-05-27T02:57:44;11.00;99.90
24146;DHT22;12308;50.948;4.706;2023-05-27T03:00:11;11.00;99.90
24146;DHT22;12308;50.948;4.706;2023-05-27T03:02:37;11.00;99.90
24146;DHT22;12308;50.948;4.706;2023-05-27T03:05:04;10.70;99.90
24146;DHT22;12308;50.948;4.706;2023-05-27T03:07:30;10.80;99.90
24146;DHT22;12308;50.948;4.706;2023-05-27T03:09:56;10.80;99.90
24146;DHT22;12308;50.948;4.706;2023-05-27T03:12:22;10.80;99.90
24146;DHT22;12308;50.948;4.706;2023-05-27T03:14:51;10.80;99.90
24146;DHT22;12308;50.948;4.706;2023-05-27T03:17:19;10.60;99.90
24146;DHT22;12308;50.948;4.706;2023-05-27T03:19:45;10.70;99.90
24146;DHT22;12308;50.948;4.706;2023-05-27T03:22:11;10.70;99.90
24146;DHT22;12308;50.948;4.706;2023-05-27T03:24:37;10.60;99.90
24146;DHT22;12308;50.948;4.706;2023-05-27T03:27:02;10.50;99.90
24146;DHT22;12308;50.948;4.706;2023-05-27T03:29:30;10.50;99.90
24146;DHT22;12308;50.948;4.706;2023-05-27T03:31:56;10.70;99.90
24146;DHT22;12308;50.948;4.706;2023-05-27T03:34:22;10.70;99.90
24146;DHT22;12308;50.948;4.706;2023-05-27T03:36:48;10.70;99.90
24146;DHT22;12308;50.948;4.706;2023-05-27T03:39:15;10.50;99.90
24146;DHT22;12308;50.948;4.706;2023-05-27T03:41:42;10.50;99.90
24146;DHT22;12308;50.948;4.706;2023-05-27T03:44:08;10.40;99.90
24146;DHT22;12308;50.948;4.706;2023-05-27T03:46:34;10.60;99.90
24146;DHT22;12308;50.948;4.706;2023-05-27T03:49:00;10.60;99.90
24146;DHT22;12308;50.948;4.706;2023-05-27T03:51:26;10.40;99.90
24146;DHT22;12308;50.948;4.706;2023-05-27T03:53:52;10.40;99.90
24146;DHT22;12308;50.948;4.706;2023-05-27T03:56:17;10.30;99.90
24146;DHT22;12308;50.948;4.706;2023-05-27T03:58:43;10.40;99.90
24146;DHT22;12308;50.948;4.706;2023-05-27T04:01:09;10.40;99.90
24146;DHT22;12308;50.948;4.706;2023-05-27T04:03:35;10.30;99.90
24146;DHT22;12308;50.948;4.706;2023-05-27T04:06:00;10.50;99.90
24146;DHT22;12308;50.948;4.706;2023-05-27T04:08:26;10.50;99.90
24146;DHT22;12308;50.948;4.706;2023-05-27T04:10:55;10.60;99.90
24146;DHT22;12308;50.948;4.706;2023-05-27T04:13:21;10.40;99.90
24146;DHT22;12308;50.948;4.706;2023-05-27T04:15:47;10.40;99.90
24146;DHT22;12308;50.948;4.706;2023-05-27T04:18:14;10.50;99.90
24146;DHT22;12308;50.948;4.706;2023-05-27T04:20:40;10.60;99.90
24146;DHT22;12308;50.948;4.706;2023-05-27T04:23:09;10.70;99.90
24146;DHT22;12308;50.948;4.706;2023-05-27T04:25:35;10.60;99.90
24146;DHT22;12308;50.948;4.706;2023-05-27T04:28:01;10.60;99.90
24146;DHT22;12308;50.948;4.706;2023-05-27T04:30:30;10.80;99.90
24146;DHT22;12308;50.948;4.706;2023-05-27T04:32:56;10.80;99.90
24146;DHT22;12308;50.948;4.706;2023-05-27T04:35:22;10.90;99.90
24146;DHT22;12308;50.948;4.706;2023-05-27T04:37:48;10.80;99.90
24146;DHT22;12308;50.948;4.706;2023-05-27T04:40:14;10.70;99.90
24146;DHT22;12308;50.948;4.706;2023-05-27T04:42:40;10.60;99.90
24146;DHT22;12308;50.948;4.706;2023-05-27T04:45:06;10.40;99.90
24146;DHT22;12308;50.948;4.706;2023-05-27T04:47:33;10.60;99.90
24146;DHT22;12308;50.948;4.706;2023-05-27T04:49:59;10.60;99.90
24146;DHT22;12308;50.948;4.706;2023-05-27T04:52:28;10.70;99.90
24146;DHT22;12308;50.948;4.706;2023-05-27T04:54:53;10.70;99.90
24146;DHT22;12308;50.948;4.706;2023-05-27T04:57:20;10.80;99.90
24146;DHT22;12308;50.948;4.706;2023-05-27T04:59:46;10.60;99.90
24146;DHT22;12308;50.948;4.706;2023-05-27T05:02:43;10.60;99.90
24146;DHT22;12308;50.948;4.706;2023-05-27T05:05:11;10.80;99.90
24146;DHT22;12308;50.948;4.706;2023-05-27T05:07:38;10.90;99.90
24146;DHT22;12308;50.948;4.706;2023-05-27T05:10:06;10.90;99.90
24146;DHT22;12308;50.948;4.706;2023-05-27T05:12:33;10.90;99.90
24146;DHT22;12308;50.948;4.706;2023-05-27T05:14:59;11.00;99.90
24146;DHT22;12308;50.948;4.706;2023-05-27T05:17:25;11.00;99.90
24146;DHT22;12308;50.948;4.706;2023-05-27T05:19:53;11.20;99.90
24146;DHT22;12308;50.948;4.706;2023-05-27T05:22:19;11.10;99.90
24146;DHT22;12308;50.948;4.706;2023-05-27T05:24:51;11.10;99.90
24146;DHT22;12308;50.948;4.706;2023-05-27T05:27:17;11.00;99.90
24146;DHT22;12308;50.948;4.706;2023-05-27T05:29:42;11.10;99.90
24146;DHT22;12308;50.948;4.706;2023-05-27T05:32:11;11.20;99.90
24146;DHT22;12308;50.948;4.706;2023-05-27T05:34:37;11.30;99.90
24146;DHT22;12308;50.948;4.706;2023-05-27T05:37:03;11.30;99.90
24146;DHT22;12308;50.948;4.706;2023-05-27T05:39:30;11.30;99.90
24146;DHT22;12308;50.948;4.706;2023-05-27T05:41:55;11.30;99.90
24146;DHT22;12308;50.948;4.706;2023-05-27T05:44:23;11.40;99.90
24146;DHT22;12308;50.948;4.706;2023-05-27T05:46:49;11.50;99.90
24146;DHT22;12308;50.948;4.706;2023-05-27T05:49:15;11.60;99.90
24146;DHT22;12308;50.948;4.706;2023-05-27T05:51:41;11.70;99.90
24146;DHT22;12308;50.948;4.706;2023-05-27T05:54:07;11.80;99.90
24146;DHT22;12308;50.948;4.706;2023-05-27T05:56:33;11.90;99.90
24146;DHT22;12308;50.948;4.706;2023-05-27T05:58:59;12.00;99.90
24146;DHT22;12308;50.948;4.706;2023-05-27T06:01:25;11.70;99.90
24146;DHT22;12308;50.948;4.706;2023-05-27T06:03:53;11.80;99.90
24146;DHT22;12308;50.948;4.706;2023-05-27T06:06:18;11.90;99.90
24146;DHT22;12308;50.948;4.706;2023-05-27T06:08:44;12.00;99.90
24146;DHT22;12308;50.948;4.706;2023-05-27T06:11:11;12.20;99.90
24146;DHT22;12308;50.948;4.706;2023-05-27T06:13:37;12.30;99.90
24146;DHT22;12308;50.948;4.706;2023-05-27T06:16:03;12.40;99.90
24146;DHT22;12308;50.948;4.706;2023-05-27T06:18:28;12.60;99.90
24146;DHT22;12308;50.948;4.706;2023-05-27T06:20:54;12.70;99.90
24146;DHT22;12308;50.948;4.706;2023-05-27T06:23:20;12.70;99.90
24146;DHT22;12308;50.948;4.706;2023-05-27T06:25:45;12.50;99.90
24146;DHT22;12308;50.948;4.706;2023-05-27T06:28:11;12.50;99.90
24146;DHT22;12308;50.948;4.706;2023-05-27T06:30:37;12.70;99.90
24146;DHT22;12308;50.948;4.706;2023-05-27T06:33:03;12.80;99.90
24146;DHT22;12308;50.948;4.706;2023-05-27T06:35:28;13.00;99.90
24146;DHT22;12308;50.948;4.706;2023-05-27T06:37:54;12.90;99.90
24146;DHT22;12308;50.948;4.706;2023-05-27T06:40:20;13.00;99.90
24146;DHT22;12308;50.948;4.706;2023-05-27T06:42:46;13.00;99.90
24146;DHT22;12308;50.948;4.706;2023-05-27T06:45:12;13.10;99.90
24146;DHT22;12308;50.948;4.706;2023-05-27T06:47:38;13.10;99.90
24146;DHT22;12308;50.948;4.706;2023-05-27T06:50:04;13.30;99.90
24146;DHT22;12308;50.948;4.706;2023-05-27T06:52:30;13.50;99.90
24146;DHT22;12308;50.948;4.706;2023-05-27T06:54:55;13.50;99.90
24146;DHT22;12308;50.948;4.706;2023-05-27T06:57:21;13.70;99.90
24146;DHT22;12308;50.948;4.706;2023-05-27T06:59:47;13.80;99.90
24146;DHT22;12308;50.948;4.706;2023-05-27T07:02:12;13.90;99.90
24146;DHT22;12308;50.948;4.706;2023-05-27T07:04:38;13.90;99.90
24146;DHT22;12308;50.948;4.706;2023-05-27T07:07:04;13.90;99.90
24146;DHT22;12308;50.948;4.706;2023-05-27T07:09:29;13.90;99.90
24146;DHT22;12308;50.948;4.706;2023-05-27T07:11:55;14.00;99.90
24146;DHT22;12308;50.948;4.706;2023-05-27T07:14:21;14.10;99.90
24146;DHT22;12308;50.948;4.706;2023-05-27T07:16:46;14.30;99.90
24146;DHT22;12308;50.948;4.706;2023-05-27T07:19:12;14.30;99.90
24146;DHT22;12308;50.948;4.706;2023-05-27T07:21:38;14.50;99.90
24146;DHT22;12308;50.948;4.706;2023-05-27T07:24:04;14.80;99.90
24146;DHT22;12308;50.948;4.706;2023-05-27T07:26:31;14.90;99.90
24146;DHT22;12308;50.948;4.706;2023-05-27T07:28:58;15.10;99.90
24146;DHT22;12308;50.948;4.706;2023-05-27T07:31:25;15.00;99.90
24146;DHT22;12308;50.948;4.706;2023-05-27T07:33:51;15.30;99.90
24146;DHT22;12308;50.948;4.706;2023-05-27T07:36:16;15.40;99.90
24146;DHT22;12308;50.948;4.706;2023-05-27T07:38:42;15.40;99.90
24146;DHT22;12308;50.948;4.706;2023-05-27T07:41:08;15.40;99.90
24146;DHT22;12308;50.948;4.706;2023-05-27T07:43:33;15.30;99.90
24146;DHT22;12308;50.948;4.706;2023-05-27T07:45:59;15.30;99.90
24146;DHT22;12308;50.948;4.706;2023-05-27T07:48:25;15.30;99.90
24146;DHT22;12308;50.948;4.706;2023-05-27T07:50:51;15.30;99.90
24146;DHT22;12308;50.948;4.706;2023-05-27T07:53:16;15.20;99.90
24146;DHT22;12308;50.948;4.706;2023-05-27T07:55:42;15.20;99.90
24146;DHT22;12308;50.948;4.706;2023-05-27T07:58:08;15.20;99.90
24146;DHT22;12308;50.948;4.706;2023-05-27T08:00:33;15.30;99.90
24146;DHT22;12308;50.948;4.706;2023-05-27T08:02:59;15.40;99.90
24146;DHT22;12308;50.948;4.706;2023-05-27T08:05:25;15.70;99.90
24146;DHT22;12308;50.948;4.706;2023-05-27T08:07:50;15.90;99.90
24146;DHT22;12308;50.948;4.706;2023-05-27T08:10:16;16.00;99.90
24146;DHT22;12308;50.948;4.706;2023-05-27T08:12:42;16.10;99.90
24146;DHT22;12308;50.948;4.706;2023-05-27T08:15:08;16.20;99.90
24146;DHT22;12308;50.948;4.706;2023-05-27T08:17:34;16.30;99.90
24146;DHT22;12308;50.948;4.706;2023-05-27T08:19:59;16.30;99.90
24146;DHT22;12308;50.948;4.706;2023-05-27T08:22:25;16.40;99.90
24146;DHT22;12308;50.948;4.706;2023-05-27T08:24:51;16.70;99.90
24146;DHT22;12308;50.948;4.706;2023-05-27T08:27:17;16.70;99.90
24146;DHT22;12308;50.948;4.706;2023-05-27T08:29:44;16.70;99.90
24146;DHT22;12308;50.948;4.706;2023-05-27T08:32:10;16.60;99.90
24146;DHT22;12308;50.948;4.706;2023-05-27T08:34:36;16.70;99.90
24146;DHT22;12308;50.948;4.706;2023-05-27T08:37:02;16.60;99.90
24146;DHT22;12308;50.948;4.706;2023-05-27T08:39:29;16.70;99.90
24146;DHT22;12308;50.948;4.706;2023-05-27T08:41:55;16.80;99.90
24146;DHT22;12308;50.948;4.706;2023-05-27T08:44:24;16.90;99.90
24146;DHT22;12308;50.948;4.706;2023-05-27T08:46:50;17.00;99.90
24146;DHT22;12308;50.948;4.706;2023-05-27T08:49:17;17.10;99.90
24146;DHT22;12308;50.948;4.706;2023-05-27T08:51:45;17.20;99.90
24146;DHT22;12308;50.948;4.706;2023-05-27T08:54:11;17.20;99.90
24146;DHT22;12308;50.948;4.706;2023-05-27T08:56:37;17.30;99.90
24146;DHT22;12308;50.948;4.706;2023-05-27T08:59:04;17.20;99.90
24146;DHT22;12308;50.948;4.706;2023-05-27T09:01:30;17.20;99.90
24146;DHT22;12308;50.948;4.706;2023-05-27T09:03:57;17.10;99.90
24146;DHT22;12308;50.948;4.706;2023-05-27T09:06:22;17.00;99.90
24146;DHT22;12308;50.948;4.706;2023-05-27T09:08:48;16.90;99.90
24146;DHT22;12308;50.948;4.706;2023-05-27T09:11:25;16.80;99.90
24146;DHT22;12308;50.948;4.706;2023-05-27T09:13:56;16.90;99.90
24146;DHT22;12308;50.948;4.706;2023-05-27T09:16:22;17.10;99.90
24146;DHT22;12308;50.948;4.706;2023-05-27T09:18:48;17.00;99.90
24146;DHT22;12308;50.948;4.706;2023-05-27T09:21:14;17.00;99.90
24146;DHT22;12308;50.948;4.706;2023-05-27T09:23:40;17.00;99.90
24146;DHT22;12308;50.948;4.706;2023-05-27T09:26:09;17.10;99.90
24146;DHT22;12308;50.948;4.706;2023-05-27T09:28:37;17.20;99.90
24146;DHT22;12308;50.948;4.706;2023-05-27T09:31:06;17.40;99.90
24146;DHT22;12308;50.948;4.706;2023-05-27T09:33:34;17.60;99.90
24146;DHT22;12308;50.948;4.706;2023-05-27T09:36:04;17.70;99.90
24146;DHT22;12308;50.948;4.706;2023-05-27T09:38:31;17.80;99.90
24146;DHT22;12308;50.948;4.706;2023-05-27T09:40:58;18.00;99.90
24146;DHT22;12308;50.948;4.706;2023-05-27T09:43:24;18.10;99.90
24146;DHT22;12308;50.948;4.706;2023-05-27T09:45:58;18.20;99.90
24146;DHT22;12308;50.948;4.706;2023-05-27T09:48:26;18.40;99.90
24146;DHT22;12308;50.948;4.706;2023-05-27T09:50:52;18.30;99.90
24146;DHT22;12308;50.948;4.706;2023-05-27T09:53:20;18.50;99.90
24146;DHT22;12308;50.948;4.706;2023-05-27T09:55:48;18.60;99.90
24146;DHT22;12308;50.948;4.706;2023-05-27T09:58:14;18.80;99.90
24146;DHT22;12308;50.948;4.706;2023-05-27T10:00:43;19.00;99.90
24146;DHT22;12308;50.948;4.706;2023-05-27T10:03:10;18.90;99.90
24146;DHT22;12308;50.948;4.706;2023-05-27T10:05:37;19.00;99.90
24146;DHT22;12308;50.948;4.706;2023-05-27T10:08:03;19.00;99.90
24146;DHT22;12308;50.948;4.706;2023-05-27T10:10:29;19.10;99.90
24146;DHT22;12308;50.948;4.706;2023-05-27T10:12:56;19.40;99.90
24146;DHT22;12308;50.948;4.706;2023-05-27T10:15:30;19.40;99.90
24146;DHT22;12308;50.948;4.706;2023-05-27T10:18:04;19.30;99.90
24146;DHT22;12308;50.948;4.706;2023-05-27T10:20:38;19.30;99.90
24146;DHT22;12308;50.948;4.706;2023-05-27T10:23:12;19.40;99.90
24146;DHT22;12308;50.948;4.706;2023-05-27T10:25:39;19.50;99.90
24146;DHT22;12308;50.948;4.706;2023-05-27T10:28:04;19.50;99.90
24146;DHT22;12308;50.948;4.706;2023-05-27T10:30:42;19.70;99.90
24146;DHT22;12308;50.948;4.706;2023-05-27T10:33:09;19.70;99.90
24146;DHT22;12308;50.948;4.706;2023-05-27T10:35:41;19.90;99.90
24146;DHT22;12308;50.948;4.706;2023-05-27T10:38:15;20.20;99.90
24146;DHT22;12308;50.948;4.706;2023-05-27T10:40:41;20.30;99.90
24146;DHT22;12308;50.948;4.706;2023-05-27T10:43:18;20.40;99.90
24146;DHT22;12308;50.948;4.706;2023-05-27T10:45:44;20.50;99.90
24146;DHT22;12308;50.948;4.706;2023-05-27T10:48:20;20.50;99.90
24146;DHT22;12308;50.948;4.706;2023-05-27T10:50:51;20.70;99.90
24146;DHT22;12308;50.948;4.706;2023-05-27T10:53:20;20.90;99.90
24146;DHT22;12308;50.948;4.706;2023-05-27T10:55:49;20.90;99.90
24146;DHT22;12308;50.948;4.706;2023-05-27T10:58:19;20.70;99.90
24146;DHT22;12308;50.948;4.706;2023-05-27T11:00:49;20.70;99.90
24146;DHT22;12308;50.948;4.706;2023-05-27T11:03:28;20.80;99.90
24146;DHT22;12308;50.948;4.706;2023-05-27T11:05:58;20.90;99.90
24146;DHT22;12308;50.948;4.706;2023-05-27T11:08:24;21.00;99.90
24146;DHT22;12308;50.948;4.706;2023-05-27T11:10:50;21.00;99.90
24146;DHT22;12308;50.948;4.706;2023-05-27T11:13:16;21.00;99.90
24146;DHT22;12308;50.948;4.706;2023-05-27T11:15:41;21.10;99.90
24146;DHT22;12308;50.948;4.706;2023-05-27T11:18:08;21.10;99.90
24146;DHT22;12308;50.948;4.706;2023-05-27T11:20:35;21.20;99.90
24146;DHT22;12308;50.948;4.706;2023-05-27T11:23:01;21.20;99.90
24146;DHT22;12308;50.948;4.706;2023-05-27T11:25:27;21.10;99.90
24146;DHT22;12308;50.948;4.706;2023-05-27T11:27:52;21.20;99.90
24146;DHT22;12308;50.948;4.706;2023-05-27T11:30:23;21.20;99.90
24146;DHT22;12308;50.948;4.706;2023-05-27T11:32:49;21.10;99.90
24146;DHT22;12308;50.948;4.706;2023-05-27T11:35:18;21.20;99.90
24146;DHT22;12308;50.948;4.706;2023-05-27T11:37:49;21.50;99.90
24146;DHT22;12308;50.948;4.706;2023-05-27T11:40:15;21.60;99.90
24146;DHT22;12308;50.948;4.706;2023-05-27T11:42:47;21.60;99.90
24146;DHT22;12308;50.948;4.706;2023-05-27T11:45:17;21.60;99.90
24146;DHT22;12308;50.948;4.706;2023-05-27T11:47:44;21.50;99.90
24146;DHT22;12308;50.948;4.706;2023-05-27T11:50:10;21.60;99.90
24146;DHT22;12308;50.948;4.706;2023-05-27T11:52:52;21.70;99.90
24146;DHT22;12308;50.948;4.706;2023-05-27T11:55:18;21.90;99.90
24146;DHT22;12308;50.948;4.706;2023-05-27T11:57:44;21.90;99.90
24146;DHT22;12308;50.948;4.706;2023-05-27T12:00:10;21.90;99.90
24146;DHT22;12308;50.948;4.706;2023-05-27T12:02:36;22.00;99.90
24146;DHT22;12308;50.948;4.706;2023-05-27T12:05:02;22.10;99.90
24146;DHT22;12308;50.948;4.706;2023-05-27T12:07:28;22.20;99.90
24146;DHT22;12308;50.948;4.706;2023-05-27T12:09:53;22.20;99.90
24146;DHT22;12308;50.948;4.706;2023-05-27T12:12:19;22.20;99.90
24146;DHT22;12308;50.948;4.706;2023-05-27T12:14:45;22.20;99.90
24146;DHT22;12308;50.948;4.706;2023-05-27T12:17:11;22.20;99.90
24146;DHT22;12308;50.948;4.706;2023-05-27T12:19:37;22.30;99.90
24146;DHT22;12308;50.948;4.706;2023-05-27T12:22:03;22.50;99.90
24146;DHT22;12308;50.948;4.706;2023-05-27T12:24:28;22.60;99.90
24146;DHT22;12308;50.948;4.706;2023-05-27T12:26:54;22.80;99.90
24146;DHT22;12308;50.948;4.706;2023-05-27T12:29:20;22.80;99.90
24146;DHT22;12308;50.948;4.706;2023-05-27T12:31:47;22.80;99.90
24146;DHT22;12308;50.948;4.706;2023-05-27T12:34:13;22.90;99.90
24146;DHT22;12308;50.948;4.706;2023-05-27T12:36:39;23.00;99.90
24146;DHT22;12308;50.948;4.706;2023-05-27T12:39:04;23.00;99.90
24146;DHT22;12308;50.948;4.706;2023-05-27T12:41:30;22.90;99.90
24146;DHT22;12308;50.948;4.706;2023-05-27T12:43:56;22.90;99.90
24146;DHT22;12308;50.948;4.706;2023-05-27T12:46:22;23.10;99.90
24146;DHT22;12308;50.948;4.706;2023-05-27T12:48:48;23.20;99.90
24146;DHT22;12308;50.948;4.706;2023-05-27T12:51:13;23.20;99.90
24146;DHT22;12308;50.948;4.706;2023-05-27T12:53:39;23.20;99.90
24146;DHT22;12308;50.948;4.706;2023-05-27T12:56:05;23.10;99.90
24146;DHT22;12308;50.948;4.706;2023-05-27T12:58:31;23.10;99.90
24146;DHT22;12308;50.948;4.706;2023-05-27T13:00:56;23.10;99.90
24146;DHT22;12308;50.948;4.706;2023-05-27T13:03:22;23.20;99.90
24146;DHT22;12308;50.948;4.706;2023-05-27T13:05:48;23.30;99.90
24146;DHT22;12308;50.948;4.706;2023-05-27T13:08:13;23.20;99.90
24146;DHT22;12308;50.948;4.706;2023-05-27T13:10:39;23.20;99.90
24146;DHT22;12308;50.948;4.706;2023-05-27T13:13:06;23.10;99.90
24146;DHT22;12308;50.948;4.706;2023-05-27T13:15:32;23.40;99.90
24146;DHT22;12308;50.948;4.706;2023-05-27T13:17:58;23.40;99.90
24146;DHT22;12308;50.948;4.706;2023-05-27T13:20:28;23.50;99.90
24146;DHT22;12308;50.948;4.706;2023-05-27T13:22:55;23.80;99.90
24146;DHT22;12308;50.948;4.706;2023-05-27T13:25:25;23.90;99.90
24146;DHT22;12308;50.948;4.706;2023-05-27T13:27:51;23.80;99.90
24146;DHT22;12308;50.948;4.706;2023-05-27T13:30:19;23.90;99.90
24146;DHT22;12308;50.948;4.706;2023-05-27T13:32:44;24.00;99.90
24146;DHT22;12308;50.948;4.706;2023-05-27T13:35:11;23.90;99.90
24146;DHT22;12308;50.948;4.706;2023-05-27T13:37:38;23.60;99.90
24146;DHT22;12308;50.948;4.706;2023-05-27T13:40:05;23.60;99.90
24146;DHT22;12308;50.948;4.706;2023-05-27T13:42:31;23.80;99.90
24146;DHT22;12308;50.948;4.706;2023-05-27T13:44:56;23.90;99.90
24146;DHT22;12308;50.948;4.706;2023-05-27T13:47:22;23.90;99.90
24146;DHT22;12308;50.948;4.706;2023-05-27T13:49:48;23.90;99.90
24146;DHT22;12308;50.948;4.706;2023-05-27T13:52:15;23.70;99.90
24146;DHT22;12308;50.948;4.706;2023-05-27T13:54:40;23.70;99.90
24146;DHT22;12308;50.948;4.706;2023-05-27T13:57:06;23.70;99.90
24146;DHT22;12308;50.948;4.706;2023-05-27T13:59:32;23.80;99.90
24146;DHT22;12308;50.948;4.706;2023-05-27T14:01:58;23.90;99.90
24146;DHT22;12308;50.948;4.706;2023-05-27T14:04:23;24.10;99.90
24146;DHT22;12308;50.948;4.706;2023-05-27T14:06:49;23.90;99.90
24146;DHT22;12308;50.948;4.706;2023-05-27T14:09:15;23.90;99.90
24146;DHT22;12308;50.948;4.706;2023-05-27T14:11:40;24.00;99.90
24146;DHT22;12308;50.948;4.706;2023-05-27T14:14:06;24.10;99.90
24146;DHT22;12308;50.948;4.706;2023-05-27T14:16:32;23.90;99.90
24146;DHT22;12308;50.948;4.706;2023-05-27T14:18:57;24.00;99.90
24146;DHT22;12308;50.948;4.706;2023-05-27T14:21:23;24.10;99.90
24146;DHT22;12308;50.948;4.706;2023-05-27T14:23:48;24.10;99.90
24146;DHT22;12308;50.948;4.706;2023-05-27T14:26:14;24.10;99.90
24146;DHT22;12308;50.948;4.706;2023-05-27T14:28:40;24.10;99.90
24146;DHT22;12308;50.948;4.706;2023-05-27T14:31:06;24.30;99.90
24146;DHT22;12308;50.948;4.706;2023-05-27T14:33:32;24.40;99.90
24146;DHT22;12308;50.948;4.706;2023-05-27T14:35:58;24.60;99.90
24146;DHT22;12308;50.948;4.706;2023-05-27T14:38:23;24.70;99.90
24146;DHT22;12308;50.948;4.706;2023-05-27T14:40:49;24.50;98.90
24146;DHT22;12308;50.948;4.706;2023-05-27T14:43:15;24.20;98.70
24146;DHT22;12308;50.948;4.706;2023-05-27T14:45:41;24.10;99.90
24146;DHT22;12308;50.948;4.706;2023-05-27T14:48:07;24.30;99.90
24146;DHT22;12308;50.948;4.706;2023-05-27T14:50:33;24.40;99.70
24146;DHT22;12308;50.948;4.706;2023-05-27T14:52:59;24.50;99.30
24146;DHT22;12308;50.948;4.706;2023-05-27T14:55:25;24.60;99.90
24146;DHT22;12308;50.948;4.706;2023-05-27T14:57:51;24.80;99.00
24146;DHT22;12308;50.948;4.706;2023-05-27T15:00:17;24.80;99.00
24146;DHT22;12308;50.948;4.706;2023-05-27T15:02:43;24.90;99.90
24146;DHT22;12308;50.948;4.706;2023-05-27T15:05:09;24.90;99.90
24146;DHT22;12308;50.948;4.706;2023-05-27T15:07:36;25.10;97.60
24146;DHT22;12308;50.948;4.706;2023-05-27T15:10:02;25.00;98.60
24146;DHT22;12308;50.948;4.706;2023-05-27T15:12:44;25.10;98.90
24146;DHT22;12308;50.948;4.706;2023-05-27T15:15:13;24.90;99.00
24146;DHT22;12308;50.948;4.706;2023-05-27T15:17:41;24.90;98.00
24146;DHT22;12308;50.948;4.706;2023-05-27T15:20:09;25.00;97.60
24146;DHT22;12308;50.948;4.706;2023-05-27T15:22:36;25.00;97.00
24146;DHT22;12308;50.948;4.706;2023-05-27T15:25:02;24.90;98.40
24146;DHT22;12308;50.948;4.706;2023-05-27T15:27:27;25.00;99.00
24146;DHT22;12308;50.948;4.706;2023-05-27T15:29:53;25.10;97.70